createdAt,value
2022-10-04T00:01:30.031Z,5.40
2022-10-04T00:03:39.341Z,5.80
2022-10-04T00:05:43.257Z,5.20
2022-10-04T00:07:51.084Z,6.00
2022-10-04T00:09:58.218Z,5.97
2022-10-04T00:12:04.503Z,6.20
2022-10-04T00:14:11.099Z,6.20
2022-10-04T00:16:22.727Z,4.87
2022-10-04T00:18:31.684Z,5.00
2022-10-04T00:21:02.987Z,5.63
2022-10-04T00:23:29.923Z,5.17
2022-10-04T00:25:37.556Z,6.83
2022-10-04T00:28:01.843Z,4.33
2022-10-04T00:30:23.199Z,4.80
2022-10-04T00:32:31.526Z,6.03
2022-10-04T00:34:49.061Z,4.80
2022-10-04T00:36:55.452Z,5.23
2022-10-04T00:39:18.584Z,6.37
2022-10-04T00:41:22.962Z,6.97
2022-10-04T00:43:31.301Z,5.60
2022-10-04T00:45:40.292Z,4.80
2022-10-04T00:48:31.039Z,4.90
2022-10-04T00:50:39.627Z,5.23
2022-10-04T00:52:48.507Z,4.57
2022-10-04T00:54:56.429Z,5.67
2022-10-04T00:57:05.446Z,4.57
2022-10-04T00:59:32.531Z,5.30
2022-10-04T01:01:38.020Z,4.30
2022-10-04T01:03:44.756Z,4.23
2022-10-04T01:05:51.922Z,5.80
2022-10-04T01:08:03.472Z,4.57
2022-10-04T01:10:11.789Z,3.87
2022-10-04T01:12:24.443Z,4.27
2022-10-04T01:14:48.621Z,4.87
2022-10-04T01:16:52.793Z,5.10
2022-10-04T01:18:56.238Z,4.60
2022-10-04T01:21:04.247Z,4.93
2022-10-04T01:23:10.830Z,4.40
2022-10-04T01:25:43.939Z,5.30
2022-10-04T01:27:47.279Z,5.17
2022-10-04T01:29:51.841Z,4.43
2022-10-04T01:31:57.272Z,6.10
2022-10-04T01:34:01.834Z,4.20
2022-10-04T01:36:05.437Z,6.67
2022-10-04T01:38:10.349Z,5.30
2022-10-04T01:40:14.022Z,5.03
2022-10-04T01:42:22.011Z,5.07
2022-10-04T01:44:32.647Z,4.97
2022-10-04T01:46:37.991Z,5.40
2022-10-04T01:48:45.388Z,4.17
2022-10-04T01:50:55.625Z,5.03
2022-10-04T01:53:10.295Z,6.60
2022-10-04T01:55:18.252Z,4.77
2022-10-04T01:57:25.397Z,4.93
2022-10-04T01:59:32.680Z,4.80
2022-10-04T02:01:45.183Z,5.00
2022-10-04T02:03:55.641Z,5.13
2022-10-04T02:06:02.872Z,6.10
2022-10-04T02:08:10.113Z,4.83
2022-10-04T02:10:20.994Z,3.70
2022-10-04T02:12:24.810Z,4.43
2022-10-04T02:14:33.123Z,4.60
2022-10-04T02:16:39.687Z,6.13
2022-10-04T02:18:44.487Z,4.40
2022-10-04T02:20:49.533Z,4.60
2022-10-04T02:22:59.145Z,6.70
2022-10-04T02:25:03.776Z,5.23
2022-10-04T02:27:08.603Z,5.33
2022-10-04T02:29:12.114Z,5.33
2022-10-04T02:31:33.244Z,6.43
2022-10-04T02:33:41.562Z,5.83
2022-10-04T02:35:47.618Z,5.70
2022-10-04T02:37:59.731Z,4.53
2022-10-04T02:40:09.293Z,4.67
2022-10-04T02:42:21.723Z,5.20
2022-10-04T02:44:29.354Z,4.60
2022-10-04T02:46:37.922Z,5.00
2022-10-04T02:48:48.302Z,4.80
2022-10-04T02:50:55.045Z,4.90
2022-10-04T02:53:04.441Z,6.30
2022-10-04T02:55:14.116Z,5.20
2022-10-04T02:57:21.252Z,4.70
2022-10-04T02:59:25.026Z,7.53
2022-10-04T03:01:43.738Z,5.37
2022-10-04T03:03:48.688Z,4.93
2022-10-04T03:06:01.604Z,4.87
2022-10-04T03:08:05.859Z,4.80
2022-10-04T03:10:13.346Z,7.40
2022-10-04T03:12:18.549Z,7.03
2022-10-04T03:14:25.636Z,5.67
2022-10-04T03:16:36.781Z,5.10
2022-10-04T03:18:40.793Z,4.37
2022-10-04T03:20:44.695Z,4.73
2022-10-04T03:22:52.005Z,8.33
2022-10-04T03:24:58.094Z,4.10
2022-10-04T03:27:06.062Z,5.37
2022-10-04T03:29:13.342Z,5.63
2022-10-04T03:31:20.002Z,4.60
2022-10-04T03:33:26.682Z,5.47
2022-10-04T03:35:34.836Z,5.80
2022-10-04T03:37:39.188Z,4.40
2022-10-04T03:39:46.841Z,7.90
2022-10-04T03:41:50.538Z,7.20
2022-10-04T03:43:56.069Z,8.73
2022-10-04T03:46:02.299Z,7.93
2022-10-04T03:48:09.088Z,6.00
2022-10-04T03:50:17.543Z,7.43
2022-10-04T03:52:25.516Z,6.13
2022-10-04T03:54:30.190Z,8.70
2022-10-04T03:56:35.939Z,10.90
2022-10-04T03:58:39.593Z,6.67
2022-10-04T04:00:47.028Z,8.50
2022-10-04T04:02:58.372Z,8.10
2022-10-04T04:05:10.503Z,10.60
2022-10-04T04:07:20.535Z,17.27
2022-10-04T04:09:30.152Z,13.60
2022-10-04T04:11:41.533Z,12.17
2022-10-04T04:13:51.950Z,12.63
2022-10-04T04:15:56.274Z,11.80
2022-10-04T04:18:04.929Z,11.43
2022-10-04T04:20:20.596Z,13.57
2022-10-04T04:22:24.427Z,11.33
2022-10-04T04:24:32.647Z,12.50
2022-10-04T04:26:40.188Z,9.50
2022-10-04T04:28:49.048Z,12.50
2022-10-04T04:30:55.923Z,10.13
2022-10-04T04:33:06.982Z,9.07
2022-10-04T04:35:23.421Z,10.73
2022-10-04T04:37:27.028Z,7.80
2022-10-04T04:39:41.241Z,13.40
2022-10-04T04:41:49.539Z,17.97
2022-10-04T04:43:54.029Z,11.20
2022-10-04T04:46:22.394Z,10.47
2022-10-04T04:48:24.062Z,9.20
2022-10-04T04:50:31.219Z,12.57
2022-10-04T04:52:35.939Z,9.50
2022-10-04T04:54:39.672Z,16.03
2022-10-04T04:56:44.746Z,26.83
2022-10-04T04:58:50.453Z,12.27
2022-10-04T05:00:57.966Z,10.33
2022-10-04T05:03:03.714Z,14.50
2022-10-04T05:05:23.867Z,9.67
2022-10-04T05:07:29.486Z,19.20
2022-10-04T05:09:34.888Z,10.13
2022-10-04T05:11:40.372Z,11.60
2022-10-04T05:13:48.656Z,9.87
2022-10-04T05:15:55.381Z,11.50
2022-10-04T05:17:59.446Z,8.20
2022-10-04T05:20:04.508Z,8.13
2022-10-04T05:22:14.294Z,10.20
2022-10-04T05:24:23.619Z,10.03
2022-10-04T05:26:30.198Z,7.50
2022-10-04T05:28:34.387Z,8.63
2022-10-04T05:30:48.763Z,10.23
2022-10-04T05:33:01.096Z,8.20
2022-10-04T05:35:16.312Z,7.70
2022-10-04T05:37:46.573Z,7.80
2022-10-04T05:39:58.543Z,11.57
2022-10-04T05:42:08.458Z,9.20
2022-10-04T05:44:26.042Z,7.30
2022-10-04T05:46:31.104Z,8.00
2022-10-04T05:48:36.357Z,10.57
2022-10-04T05:50:42.752Z,9.47
2022-10-04T05:52:49.966Z,12.10
2022-10-04T05:55:17.773Z,12.57
2022-10-04T05:57:39.640Z,9.13
2022-10-04T06:00:04.321Z,13.10
2022-10-04T06:02:34.117Z,11.30
2022-10-04T06:05:00.625Z,10.37
2022-10-04T06:07:15.735Z,10.20
2022-10-04T06:09:48.320Z,11.63
2022-10-04T06:12:02.199Z,9.30
2022-10-04T06:14:39.449Z,9.00
2022-10-04T06:16:58.665Z,9.73
2022-10-04T06:19:27.793Z,15.83
2022-10-04T06:21:32.153Z,14.33
2022-10-04T06:23:39.485Z,14.10
2022-10-04T06:25:48.622Z,14.03
2022-10-04T06:27:55.937Z,16.03
2022-10-04T06:30:02.562Z,16.10
2022-10-04T06:32:24.037Z,14.30
2022-10-04T06:34:48.082Z,12.10
2022-10-04T06:37:15.593Z,11.50
2022-10-04T06:39:44.048Z,9.83
2022-10-04T06:42:04.852Z,13.40
2022-10-04T06:44:23.610Z,9.17
2022-10-04T06:46:32.678Z,13.43
2022-10-04T06:49:04.177Z,9.83
2022-10-04T06:51:20.934Z,9.23
2022-10-04T06:53:36.089Z,11.80
2022-10-04T06:56:03.033Z,10.87
2022-10-04T06:58:42.930Z,13.63
2022-10-04T07:00:54.658Z,7.63
2022-10-04T07:03:06.018Z,10.53
2022-10-04T07:05:19.827Z,9.50
2022-10-04T07:07:35.498Z,9.77
2022-10-04T07:09:43.228Z,13.37
2022-10-04T07:11:53.071Z,15.27
2022-10-04T07:14:05.088Z,14.00
2022-10-04T07:16:18.303Z,14.30
2022-10-04T07:18:26.389Z,13.63
2022-10-04T07:20:33.933Z,18.00
2022-10-04T07:22:43.212Z,19.70
2022-10-04T07:25:06.666Z,21.27
2022-10-04T07:27:14.443Z,17.70
2022-10-04T07:29:22.722Z,23.97
2022-10-04T07:31:29.045Z,14.50
2022-10-04T07:33:36.630Z,18.27
2022-10-04T07:35:46.802Z,11.13
2022-10-04T07:37:59.072Z,8.80
2022-10-04T07:40:09.426Z,7.80
2022-10-04T07:42:22.786Z,16.90
2022-10-04T07:44:36.816Z,9.70
2022-10-04T07:46:49.835Z,9.60
2022-10-04T07:48:53.223Z,10.17
2022-10-04T07:51:09.321Z,8.67
2022-10-04T07:53:17.259Z,8.60
2022-10-04T07:55:28.592Z,8.60
2022-10-04T07:57:41.984Z,12.77
2022-10-04T07:59:55.523Z,9.17
2022-10-04T08:02:12.910Z,9.43
2022-10-04T08:04:33.450Z,9.40
2022-10-04T08:06:39.773Z,9.77
2022-10-04T08:09:11.687Z,11.40
2022-10-04T08:11:27.539Z,10.37
2022-10-04T08:13:39.305Z,13.50
2022-10-04T08:15:45.234Z,10.23
2022-10-04T08:17:57.392Z,9.83
2022-10-04T08:20:14.859Z,13.67
2022-10-04T08:22:28.533Z,9.57
2022-10-04T08:24:41.523Z,9.90
2022-10-04T08:26:58.885Z,12.57
2022-10-04T08:29:44.448Z,9.47
2022-10-04T08:32:05.247Z,10.50
2022-10-04T08:34:32.131Z,15.77
2022-10-04T08:36:56.529Z,14.93
2022-10-04T08:39:01.388Z,12.97
2022-10-04T08:41:37.649Z,11.23
2022-10-04T08:44:10.956Z,12.40
2022-10-04T08:46:41.383Z,10.53
2022-10-04T08:49:21.137Z,9.47
2022-10-04T08:52:10.101Z,10.43
2022-10-04T08:54:43.083Z,11.13
2022-10-04T08:57:16.372Z,10.80
2022-10-04T08:59:54.558Z,10.83
2022-10-04T09:02:44.417Z,11.73
2022-10-04T09:05:14.452Z,12.30
2022-10-04T09:07:52.803Z,12.00
2022-10-04T09:10:33.386Z,9.20
2022-10-04T09:13:02.907Z,11.30
2022-10-04T09:15:26.994Z,10.53
2022-10-04T09:17:39.968Z,8.60
2022-10-04T09:19:55.648Z,14.33
2022-10-04T09:22:20.636Z,11.17
2022-10-04T09:24:44.833Z,11.17
2022-10-04T09:26:56.944Z,14.27
2022-10-04T09:29:42.506Z,11.20
2022-10-04T09:32:12.553Z,11.00
2022-10-04T09:34:41.822Z,12.27
2022-10-04T09:37:17.439Z,9.50
2022-10-04T09:39:49.430Z,13.37
2022-10-04T09:42:16.051Z,9.60
2022-10-04T09:44:46.077Z,9.87
2022-10-04T09:47:08.813Z,8.97
2022-10-04T09:49:36.779Z,5.90
2022-10-04T09:52:16.346Z,8.17
2022-10-04T09:54:58.754Z,7.60
2022-10-04T09:57:29.521Z,9.67
2022-10-04T09:59:54.165Z,6.37
2022-10-04T10:02:30.884Z,6.80
2022-10-04T10:04:48.603Z,9.00
2022-10-04T10:07:25.132Z,8.53
2022-10-04T10:10:00.141Z,8.07
2022-10-04T10:12:41.766Z,8.27
2022-10-04T10:15:22.607Z,5.60
2022-10-04T10:17:37.865Z,7.13
2022-10-04T10:20:04.044Z,6.80
2022-10-04T10:22:28.825Z,3.97
2022-10-04T10:25:03.825Z,4.70
2022-10-04T10:27:27.203Z,6.60
2022-10-04T10:29:52.020Z,5.83
2022-10-04T10:32:16.538Z,6.53
2022-10-04T10:34:53.612Z,6.70
2022-10-04T10:37:10.010Z,5.80
2022-10-04T10:39:38.924Z,5.40
2022-10-04T10:41:55.808Z,5.50
2022-10-04T10:44:19.812Z,6.53
2022-10-04T10:46:47.646Z,8.67
2022-10-04T10:49:23.437Z,6.50
2022-10-04T10:51:55.914Z,4.67
2022-10-04T10:54:40.517Z,6.43
2022-10-04T10:56:52.484Z,4.63
2022-10-04T10:59:21.776Z,4.67
2022-10-04T11:01:47.230Z,4.23
2022-10-04T11:04:14.264Z,5.10
2022-10-04T11:06:42.238Z,3.53
2022-10-04T11:09:29.312Z,4.13
2022-10-04T11:11:56.116Z,4.60
2022-10-04T11:14:36.974Z,5.33
2022-10-04T11:17:11.266Z,4.50
2022-10-04T11:20:05.612Z,4.87
2022-10-04T11:23:08.918Z,6.57
2022-10-04T11:25:57.130Z,3.80
2022-10-04T11:28:07.170Z,3.73
2022-10-04T11:30:24.649Z,4.83
2022-10-04T11:33:01.202Z,6.27
2022-10-04T11:35:39.882Z,7.00
2022-10-04T11:38:02.383Z,6.90
2022-10-04T11:40:20.003Z,5.20
2022-10-04T11:42:38.696Z,5.13
2022-10-04T11:45:20.273Z,5.07
2022-10-04T11:47:36.120Z,4.77
2022-10-04T11:49:56.574Z,3.63
2022-10-04T11:52:20.139Z,6.60
2022-10-04T11:54:57.774Z,4.43
2022-10-04T11:57:15.915Z,3.90
2022-10-04T11:59:33.786Z,5.93
2022-10-04T12:02:26.886Z,5.00
2022-10-04T12:05:01.175Z,6.73
2022-10-04T12:07:27.543Z,3.53
2022-10-04T12:09:41.480Z,5.70
2022-10-04T12:12:38.265Z,6.17
2022-10-04T12:14:57.487Z,5.70
2022-10-04T12:17:39.476Z,7.97
2022-10-04T12:20:14.431Z,5.63
2022-10-04T12:22:40.251Z,3.70
2022-10-04T12:25:09.162Z,4.70
2022-10-04T12:27:41.865Z,5.83
2022-10-04T12:30:20.572Z,4.67
2022-10-04T12:32:31.288Z,5.90
2022-10-04T12:34:43.918Z,3.27
2022-10-04T12:37:05.803Z,5.00
2022-10-04T12:39:40.916Z,4.80
2022-10-04T12:41:55.767Z,4.40
2022-10-04T12:44:13.453Z,3.23
2022-10-04T12:46:33.447Z,3.43
2022-10-04T12:48:49.047Z,3.40
2022-10-04T12:51:02.780Z,3.60
2022-10-04T12:53:18.129Z,3.87
2022-10-04T12:55:47.845Z,5.40
2022-10-04T12:57:54.610Z,3.80
2022-10-04T13:00:05.980Z,4.10
2022-10-04T13:02:25.628Z,4.43
2022-10-04T13:04:36.027Z,4.03
2022-10-04T13:06:54.564Z,3.67
2022-10-04T13:09:08.523Z,6.20
2022-10-04T13:11:27.600Z,3.83
2022-10-04T13:14:00.732Z,4.60
2022-10-04T13:18:49.078Z,3.20
2022-10-04T13:21:01.130Z,5.20
2022-10-04T13:23:09.492Z,3.50
2022-10-04T13:25:26.046Z,3.73
2022-10-04T13:27:41.340Z,4.93
2022-10-04T13:29:53.034Z,4.70
2022-10-04T13:32:03.097Z,4.60
2022-10-04T13:34:21.236Z,3.93
2022-10-04T13:36:36.342Z,4.53
2022-10-04T13:39:14.992Z,3.40
2022-10-04T13:41:27.095Z,3.40
2022-10-04T13:44:00.910Z,4.10
2022-10-04T13:46:22.291Z,4.50
2022-10-04T13:48:34.589Z,4.33
2022-10-04T13:50:48.022Z,4.57
2022-10-04T13:53:14.941Z,7.07
2022-10-04T13:55:49.367Z,3.10
2022-10-04T13:58:00.196Z,5.50
2022-10-04T14:00:12.436Z,4.00
2022-10-04T14:02:50.547Z,3.23
2022-10-04T14:05:32.933Z,5.00
2022-10-04T14:07:51.507Z,3.33
2022-10-04T14:10:05.240Z,3.60
2022-10-04T14:12:36.258Z,5.67
2022-10-04T14:15:25.849Z,5.47
2022-10-04T14:18:13.392Z,3.73
2022-10-04T14:20:51.358Z,5.70
2022-10-04T14:23:30.157Z,3.63
2022-10-04T14:26:18.118Z,3.47
2022-10-04T14:28:46.006Z,4.50
2022-10-04T14:31:10.239Z,3.33
2022-10-04T14:33:45.979Z,3.03
2022-10-04T14:35:54.242Z,5.20
2022-10-04T14:38:33.408Z,3.90
2022-10-04T14:41:12.311Z,3.23
2022-10-04T14:43:48.678Z,4.33
2022-10-04T14:46:10.287Z,5.97
2022-10-04T14:48:42.530Z,6.73
2022-10-04T14:50:58.595Z,5.27
2022-10-04T14:53:16.516Z,3.10
2022-10-04T14:55:40.138Z,3.27
2022-10-04T14:58:01.888Z,3.80
2022-10-04T15:00:17.875Z,5.27
2022-10-04T15:02:50.279Z,3.40
2022-10-04T15:05:28.540Z,4.83
2022-10-04T15:07:35.931Z,3.80
2022-10-04T15:09:55.522Z,4.47
2022-10-04T15:12:27.106Z,4.30
2022-10-04T15:14:37.882Z,4.40
2022-10-04T15:16:48.091Z,3.60
2022-10-04T15:18:56.094Z,7.20
2022-10-04T15:21:05.267Z,3.17
2022-10-04T15:23:16.716Z,3.00
2022-10-04T15:25:41.460Z,2.97
2022-10-04T15:27:52.655Z,3.13
2022-10-04T15:30:10.046Z,2.77
2022-10-04T15:32:28.222Z,3.37
2022-10-04T15:34:44.155Z,4.70
2022-10-04T15:37:04.301Z,5.57
2022-10-04T15:39:35.370Z,4.90
2022-10-04T15:41:46.766Z,4.30
2022-10-04T15:44:28.210Z,5.13
2022-10-04T15:46:43.052Z,4.40
2022-10-04T15:49:09.719Z,4.03
2022-10-04T15:51:21.583Z,3.70
2022-10-04T15:53:47.376Z,3.20
2022-10-04T15:56:27.886Z,3.13
2022-10-04T15:58:54.316Z,3.70
2022-10-04T16:01:20.858Z,3.27
2022-10-04T16:03:34.548Z,3.80
2022-10-04T16:05:43.487Z,3.60
2022-10-04T16:08:28.100Z,4.20
2022-10-04T16:10:58.587Z,2.60
2022-10-04T16:13:33.372Z,2.90
2022-10-04T16:15:39.295Z,2.50
2022-10-04T16:17:57.534Z,2.70
2022-10-04T16:20:21.160Z,2.87
2022-10-04T16:22:30.009Z,6.53
2022-10-04T16:24:51.303Z,7.57
2022-10-04T16:27:20.781Z,5.93
2022-10-04T16:29:31.599Z,5.33
2022-10-04T16:31:45.010Z,22.37
2022-10-04T16:33:57.534Z,12.67
2022-10-04T16:36:10.304Z,9.17
2022-10-04T16:38:25.222Z,7.87
2022-10-04T16:40:37.067Z,6.33
2022-10-04T16:42:54.044Z,7.70
2022-10-04T16:45:03.063Z,5.17
2022-10-04T16:47:23.947Z,6.20
2022-10-04T16:49:37.584Z,3.40
2022-10-04T16:52:12.936Z,4.43
2022-10-04T16:54:43.931Z,4.10
2022-10-04T16:57:13.960Z,3.73
2022-10-04T16:59:48.094Z,3.50
2022-10-04T17:02:18.064Z,4.93
2022-10-04T17:04:45.060Z,3.77
2022-10-04T17:06:55.694Z,4.03
2022-10-04T17:09:18.621Z,5.73
2022-10-04T17:11:48.930Z,3.43
2022-10-04T17:13:57.346Z,3.30
2022-10-04T17:16:12.815Z,3.53
2022-10-04T17:18:37.303Z,3.50
2022-10-04T17:20:52.061Z,3.07
2022-10-04T17:23:09.342Z,3.50
2022-10-04T17:25:28.644Z,4.97
2022-10-04T17:27:47.545Z,3.83
2022-10-04T17:30:12.819Z,3.83
2022-10-04T17:32:27.999Z,3.87
2022-10-04T17:34:46.587Z,4.00
2022-10-04T17:36:54.881Z,3.73
2022-10-04T17:39:11.175Z,4.23
2022-10-04T17:41:24.797Z,3.97
2022-10-04T17:43:37.465Z,3.80
2022-10-04T17:45:53.955Z,3.83
2022-10-04T17:48:21.776Z,5.57
2022-10-04T17:50:47.577Z,6.23
2022-10-04T17:53:14.229Z,5.50
2022-10-04T17:55:22.014Z,4.40
2022-10-04T17:57:34.140Z,4.37
2022-10-04T17:59:42.455Z,5.43
2022-10-04T18:01:49.500Z,4.30
2022-10-04T18:04:00.246Z,4.63
2022-10-04T18:06:16.575Z,5.13
2022-10-04T18:08:36.293Z,5.90
2022-10-04T18:10:47.215Z,7.03
2022-10-04T18:12:56.940Z,8.00
2022-10-04T18:15:07.832Z,7.80
2022-10-04T18:17:24.486Z,8.40
2022-10-04T18:19:39.585Z,7.10
2022-10-04T18:21:50.427Z,6.30
2022-10-04T18:23:59.819Z,5.67
2022-10-04T18:26:09.197Z,6.40
2022-10-04T18:28:15.060Z,5.93
2022-10-04T18:30:22.556Z,5.90
2022-10-04T18:32:33.879Z,6.40
2022-10-04T18:34:40.256Z,5.30
2022-10-04T18:36:53.434Z,6.60
2022-10-04T18:39:05.041Z,4.30
2022-10-04T18:41:18.858Z,6.30
2022-10-04T18:43:27.313Z,4.33
2022-10-04T18:45:32.210Z,5.30
2022-10-04T18:47:38.703Z,4.67
2022-10-04T18:49:51.059Z,5.57
2022-10-04T18:52:08.132Z,4.43
2022-10-04T18:54:24.245Z,7.43
2022-10-04T18:56:33.913Z,7.07
2022-10-04T18:59:09.433Z,4.87
2022-10-04T19:01:42.747Z,5.67
2022-10-04T19:03:53.965Z,4.53
2022-10-04T19:06:07.763Z,4.90
2022-10-04T19:08:20.138Z,5.63
2022-10-04T19:10:29.164Z,6.67
2022-10-04T19:12:41.346Z,5.63
2022-10-04T19:14:55.630Z,4.77
2022-10-04T19:17:02.536Z,12.43
2022-10-04T19:19:22.920Z,6.57
2022-10-04T19:21:40.520Z,7.13
2022-10-04T19:23:54.511Z,14.63
2022-10-04T19:28:34.038Z,7.37
2022-10-04T19:30:58.451Z,4.50
2022-10-04T19:33:08.785Z,6.67
2022-10-04T19:35:27.208Z,5.60
2022-10-04T19:37:36.322Z,7.67
2022-10-04T19:39:51.579Z,7.20
2022-10-04T19:42:00.396Z,3.90
2022-10-04T19:44:13.976Z,3.90
2022-10-04T19:46:29.946Z,4.73
2022-10-04T19:48:40.272Z,5.80
2022-10-04T19:50:47.782Z,4.83
2022-10-04T19:53:00.679Z,4.70
2022-10-04T19:55:12.610Z,7.30
2022-10-04T19:57:15.945Z,6.27
2022-10-04T19:59:25.054Z,5.30
2022-10-04T20:01:29.677Z,5.60
2022-10-04T20:03:33.210Z,5.93
2022-10-04T20:05:44.239Z,4.20
2022-10-04T20:07:51.595Z,4.30
2022-10-04T20:10:08.426Z,4.13
2022-10-04T20:12:31.643Z,3.67
2022-10-04T20:14:46.979Z,4.50
2022-10-04T20:17:04.565Z,5.90
2022-10-04T20:19:18.875Z,4.67
2022-10-04T20:21:27.371Z,6.90
2022-10-04T20:23:49.421Z,6.63
2022-10-04T20:26:06.504Z,5.63
2022-10-04T20:28:11.029Z,6.30
2022-10-04T20:30:16.438Z,5.83
2022-10-04T20:32:53.216Z,5.77
2022-10-04T20:34:58.036Z,4.70
2022-10-04T20:37:01.445Z,5.27
2022-10-04T20:39:06.255Z,4.97
2022-10-04T20:42:00.642Z,5.10
2022-10-04T20:44:04.724Z,4.87
2022-10-04T20:46:23.773Z,5.20
2022-10-04T20:48:28.955Z,6.87
2022-10-04T20:50:38.847Z,5.30
2022-10-04T20:52:46.880Z,5.40
2022-10-04T20:54:52.248Z,4.97
2022-10-04T20:56:56.927Z,8.17
2022-10-04T20:59:01.917Z,5.37
2022-10-04T21:01:16.908Z,4.97
2022-10-04T21:03:21.267Z,6.47
2022-10-04T21:05:25.623Z,8.60
2022-10-04T21:07:30.980Z,5.07
2022-10-04T21:09:36.122Z,6.87
2022-10-04T21:11:46.500Z,6.67
2022-10-04T21:13:57.219Z,5.07
2022-10-04T21:16:00.624Z,4.37
2022-10-04T21:18:07.108Z,6.13
2022-10-04T21:20:15.361Z,4.43
2022-10-04T21:22:38.396Z,5.90
2022-10-04T21:24:43.834Z,3.83
2022-10-04T21:26:56.742Z,5.13
2022-10-04T21:29:01.884Z,5.50
2022-10-04T21:31:05.576Z,5.70
2022-10-04T21:33:08.857Z,7.20
2022-10-04T21:35:13.870Z,5.53
2022-10-04T21:37:17.581Z,6.00
2022-10-04T21:39:20.966Z,8.40
2022-10-04T21:41:24.359Z,7.03
2022-10-04T21:43:27.753Z,7.63
2022-10-04T21:45:32.541Z,7.17
2022-10-04T21:47:37.172Z,6.97
2022-10-04T21:49:40.867Z,5.83
2022-10-04T21:51:44.251Z,13.97
2022-10-04T21:53:47.781Z,10.27
2022-10-04T21:55:51.197Z,10.70
2022-10-04T21:57:54.534Z,10.17
2022-10-04T21:59:57.892Z,10.87
2022-10-04T22:02:02.755Z,8.10
2022-10-04T22:04:06.155Z,11.07
2022-10-04T22:06:09.618Z,7.90
2022-10-04T22:08:13.048Z,7.60
2022-10-04T22:10:16.484Z,6.00
2022-10-04T22:12:19.749Z,5.97
2022-10-04T22:14:23.087Z,5.97
2022-10-04T22:16:26.558Z,8.00
2022-10-04T22:18:32.718Z,6.27
2022-10-04T22:20:37.643Z,7.37
2022-10-04T22:22:40.983Z,7.07
2022-10-04T22:24:44.511Z,5.00
2022-10-04T22:26:48.377Z,7.20
2022-10-04T22:28:53.767Z,6.73
2022-10-04T22:30:57.654Z,6.20
2022-10-04T22:33:02.316Z,5.60
2022-10-04T22:35:13.755Z,5.57
2022-10-04T22:37:19.052Z,5.30
2022-10-04T22:39:22.944Z,6.17
2022-10-04T22:41:30.093Z,9.10
2022-10-04T22:43:33.378Z,5.00
2022-10-04T22:45:37.476Z,5.10
2022-10-04T22:47:41.113Z,6.37
2022-10-04T22:49:46.274Z,5.73
2022-10-04T22:51:52.560Z,6.63
2022-10-04T22:53:56.466Z,6.00
2022-10-04T22:56:00.452Z,4.93
2022-10-04T22:58:04.869Z,5.57
2022-10-04T23:00:11.950Z,10.60
2022-10-04T23:02:17.465Z,6.20
2022-10-04T23:04:24.227Z,6.97
2022-10-04T23:06:27.655Z,5.97
2022-10-04T23:08:32.930Z,6.70
2022-10-04T23:10:36.264Z,7.93
2022-10-04T23:12:40.817Z,7.40
2022-10-04T23:14:44.158Z,7.53
2022-10-04T23:16:47.971Z,10.07
2022-10-04T23:18:51.675Z,7.43
2022-10-04T23:20:58.949Z,6.20
2022-10-04T23:23:02.262Z,6.00
2022-10-04T23:25:15.024Z,7.20
2022-10-04T23:27:18.845Z,8.30
2022-10-04T23:29:25.444Z,7.40
2022-10-04T23:31:28.967Z,5.30
2022-10-04T23:33:32.518Z,6.30
2022-10-04T23:35:35.868Z,9.63
2022-10-04T23:37:40.762Z,7.43
2022-10-04T23:39:45.431Z,6.60
2022-10-04T23:41:50.107Z,6.33
2022-10-04T23:43:54.274Z,5.63
2022-10-04T23:45:58.907Z,7.80
2022-10-04T23:48:02.631Z,7.57
2022-10-04T23:50:20.528Z,6.17
2022-10-04T23:52:32.196Z,7.10
2022-10-04T23:54:35.563Z,8.70
2022-10-04T23:56:38.851Z,7.27
2022-10-04T23:58:43.676Z,8.30
